createdAt,value
2024-02-18T00:02:17.881Z,90.57
2024-02-18T00:04:44.637Z,90.34
2024-02-18T00:07:11.479Z,90.79
2024-02-18T00:09:37.937Z,90.81
2024-02-18T00:12:04.813Z,90.53
2024-02-18T00:14:31.261Z,90.72
2024-02-18T00:16:57.674Z,90.85
2024-02-18T00:19:24.362Z,90.78
2024-02-18T00:21:52.401Z,90.93
2024-02-18T00:24:18.996Z,90.96
2024-02-18T00:26:57.905Z,90.49
2024-02-18T00:29:25.725Z,90.64
2024-02-18T00:31:52.535Z,90.87
2024-02-18T00:34:23.185Z,90.42
2024-02-18T00:36:50.838Z,90.28
2024-02-18T00:39:17.471Z,90.36
2024-02-18T00:41:43.994Z,90.32
2024-02-18T00:44:10.763Z,90.59
2024-02-18T00:46:45.050Z,90.23
2024-02-18T00:49:18.397Z,90.34
2024-02-18T00:51:45.646Z,90.20
2024-02-18T00:54:12.475Z,90.40
2024-02-18T00:56:38.903Z,89.97
2024-02-18T00:59:05.402Z,90.11
2024-02-18T01:01:31.889Z,90.02
2024-02-18T01:03:58.425Z,89.89
2024-02-18T01:06:24.937Z,89.91
2024-02-18T01:08:51.575Z,90.12
2024-02-18T01:11:18.079Z,89.79
2024-02-18T01:13:44.519Z,90.12
2024-02-18T01:16:10.972Z,89.79
2024-02-18T01:18:45.005Z,89.85
2024-02-18T01:21:12.305Z,89.64
2024-02-18T01:23:39.038Z,89.94
2024-02-18T01:26:06.081Z,89.79
2024-02-18T01:28:32.539Z,89.78
2024-02-18T01:30:59.120Z,89.47
2024-02-18T01:33:25.732Z,89.67
2024-02-18T01:35:52.378Z,89.41
2024-02-18T01:38:18.847Z,89.36
2024-02-18T01:40:45.489Z,89.54
2024-02-18T01:43:14.113Z,89.55
2024-02-18T01:45:40.850Z,89.55
2024-02-18T01:48:07.819Z,89.40
2024-02-18T01:50:34.641Z,89.23
2024-02-18T01:53:01.481Z,89.31
2024-02-18T01:55:28.058Z,89.41
2024-02-18T01:57:54.574Z,89.50
2024-02-18T02:00:22.554Z,89.43
2024-02-18T02:02:50.735Z,89.38
2024-02-18T02:05:20.177Z,89.09
2024-02-18T02:07:49.897Z,89.02
2024-02-18T02:10:17.405Z,89.43
2024-02-18T02:12:44.054Z,89.28
2024-02-18T02:15:11.296Z,88.96
2024-02-18T02:17:38.521Z,88.98
2024-02-18T02:20:11.717Z,88.89
2024-02-18T02:22:39.345Z,88.98
2024-02-18T02:25:09.779Z,89.15
2024-02-18T02:27:42.524Z,88.81
2024-02-18T02:30:09.204Z,88.81
2024-02-18T02:32:36.676Z,88.98
2024-02-18T02:35:04.189Z,88.75
2024-02-18T02:37:31.277Z,88.97
2024-02-18T02:39:57.919Z,88.62
2024-02-18T02:42:24.495Z,88.69
2024-02-18T02:44:51.019Z,88.71
2024-02-18T02:47:17.613Z,88.55
2024-02-18T02:49:44.309Z,88.10
2024-02-18T02:52:10.925Z,88.05
2024-02-18T02:54:37.426Z,88.28
2024-02-18T02:57:04.163Z,88.21
2024-02-18T02:59:30.588Z,88.24
2024-02-18T03:01:57.053Z,87.92
2024-02-18T03:04:23.625Z,88.13
2024-02-18T03:06:50.464Z,88.17
2024-02-18T03:09:18.270Z,87.90
2024-02-18T03:11:44.727Z,87.77
2024-02-18T03:14:12.430Z,87.42
2024-02-18T03:16:38.906Z,87.33
2024-02-18T03:19:05.583Z,87.50
2024-02-18T03:21:32.175Z,87.54
2024-02-18T03:23:58.683Z,87.64
2024-02-18T03:26:27.010Z,87.91
2024-02-18T03:28:53.938Z,87.62
2024-02-18T03:31:21.315Z,87.71
2024-02-18T03:33:48.751Z,88.16
2024-02-18T03:36:15.392Z,88.09
2024-02-18T03:38:41.907Z,88.44
2024-02-18T03:41:08.712Z,88.48
2024-02-18T03:43:35.703Z,88.59
2024-02-18T03:46:03.298Z,89.04
2024-02-18T03:48:30.235Z,89.43
2024-02-18T03:50:57.044Z,89.57
2024-02-18T03:53:23.548Z,89.69
2024-02-18T03:55:50.623Z,89.74
2024-02-18T03:58:17.087Z,90.09
2024-02-18T04:00:48.036Z,90.21
2024-02-18T04:03:15.091Z,90.50
2024-02-18T04:05:42.806Z,90.75
2024-02-18T04:08:09.423Z,91.03
2024-02-18T04:10:35.854Z,91.03
2024-02-18T04:13:02.513Z,91.58
2024-02-18T04:15:29.025Z,92.01
2024-02-18T04:17:56.048Z,92.19
2024-02-18T04:20:22.937Z,92.09
2024-02-18T04:22:49.349Z,92.52
2024-02-18T04:25:15.950Z,92.59
2024-02-18T04:27:42.677Z,92.29
2024-02-18T04:30:09.621Z,92.65
2024-02-18T04:32:36.132Z,92.91
2024-02-18T04:35:02.669Z,92.99
2024-02-18T04:37:29.256Z,93.12
2024-02-18T04:39:55.817Z,93.51
2024-02-18T04:42:22.433Z,93.52
2024-02-18T04:44:48.921Z,93.69
2024-02-18T04:47:15.426Z,93.38
2024-02-18T04:49:41.903Z,93.37
2024-02-18T04:52:08.440Z,93.35
2024-02-18T04:54:38.599Z,93.33
2024-02-18T04:57:06.615Z,93.39
2024-02-18T04:59:35.125Z,93.18
2024-02-18T05:02:02.198Z,93.23
2024-02-18T05:04:32.745Z,93.06
2024-02-18T05:06:59.917Z,93.08
2024-02-18T05:09:26.678Z,93.07
2024-02-18T05:11:53.246Z,93.06
2024-02-18T05:14:19.988Z,92.94
2024-02-18T05:16:46.693Z,92.69
2024-02-18T05:19:13.661Z,92.57
2024-02-18T05:21:40.729Z,92.11
2024-02-18T05:24:07.424Z,91.82
2024-02-18T05:26:33.851Z,92.14
2024-02-18T05:29:00.386Z,91.26
2024-02-18T05:31:27.434Z,91.59
2024-02-18T05:33:54.414Z,91.44
2024-02-18T05:36:21.919Z,91.73
2024-02-18T05:38:48.368Z,90.88
2024-02-18T05:41:14.767Z,91.00
2024-02-18T05:43:41.189Z,91.01
2024-02-18T05:46:09.324Z,91.42
2024-02-18T05:48:36.520Z,91.24
2024-02-18T05:51:03.250Z,91.65
2024-02-18T05:53:29.619Z,91.65
2024-02-18T05:55:56.035Z,91.58
2024-02-18T05:58:24.242Z,91.82
2024-02-18T06:00:51.325Z,91.76
2024-02-18T06:03:19.050Z,91.94
2024-02-18T06:05:45.846Z,91.88
2024-02-18T06:08:12.872Z,92.25
2024-02-18T06:10:39.311Z,91.94
2024-02-18T06:13:05.929Z,92.04
2024-02-18T06:15:33.729Z,92.45
2024-02-18T06:18:00.439Z,92.53
2024-02-18T06:20:28.477Z,92.65
2024-02-18T06:22:55.183Z,93.10
2024-02-18T06:25:21.768Z,92.77
2024-02-18T06:27:48.833Z,93.08
2024-02-18T06:30:15.779Z,93.04
2024-02-18T06:32:42.246Z,93.11
2024-02-18T06:35:09.540Z,92.84
2024-02-18T06:37:36.233Z,93.27
2024-02-18T06:40:03.042Z,92.83
2024-02-18T06:42:29.826Z,93.02
2024-02-18T06:44:56.219Z,92.90
2024-02-18T06:47:22.786Z,93.31
2024-02-18T06:49:49.514Z,93.24
2024-02-18T06:52:16.286Z,93.61
2024-02-18T06:54:43.118Z,93.76
2024-02-18T06:57:09.573Z,94.01
2024-02-18T06:59:35.929Z,94.06
2024-02-18T07:02:02.389Z,93.71
2024-02-18T07:04:28.862Z,93.66
2024-02-18T07:06:55.805Z,93.59
2024-02-18T07:09:22.458Z,93.71
2024-02-18T07:11:48.935Z,94.13
2024-02-18T07:14:15.341Z,94.47
2024-02-18T07:16:41.918Z,94.34
2024-02-18T07:19:09.110Z,94.46
2024-02-18T07:21:35.735Z,94.60
2024-02-18T07:24:02.172Z,95.08
2024-02-18T07:26:28.610Z,94.78
2024-02-18T07:28:58.528Z,94.88
2024-02-18T07:31:27.452Z,95.31
2024-02-18T07:33:54.152Z,95.29
2024-02-18T07:36:20.602Z,95.71
2024-02-18T07:38:47.063Z,95.54
2024-02-18T07:41:13.455Z,95.53
2024-02-18T07:43:39.864Z,95.76
2024-02-18T07:46:06.347Z,96.14
2024-02-18T07:48:32.914Z,96.19
2024-02-18T07:50:59.431Z,96.22
2024-02-18T07:53:25.862Z,96.19
2024-02-18T07:55:52.284Z,96.05
2024-02-18T07:58:18.702Z,95.75
2024-02-18T08:00:45.343Z,96.21
2024-02-18T08:03:11.823Z,96.34
2024-02-18T08:05:38.398Z,96.43
2024-02-18T08:08:05.016Z,96.22
2024-02-18T08:10:31.399Z,96.28
2024-02-18T08:12:57.872Z,96.19
2024-02-18T08:15:24.591Z,96.55
2024-02-18T08:17:51.421Z,96.87
2024-02-18T08:20:17.970Z,96.79
2024-02-18T08:22:45.458Z,96.89
2024-02-18T08:25:12.294Z,97.02
2024-02-18T08:27:38.780Z,97.12
2024-02-18T08:30:06.387Z,97.23
2024-02-18T08:32:33.196Z,97.19
2024-02-18T08:34:59.844Z,97.26
2024-02-18T08:37:26.346Z,97.00
2024-02-18T08:39:52.870Z,97.47
2024-02-18T08:42:19.279Z,97.27
2024-02-18T08:44:45.664Z,97.51
2024-02-18T08:47:12.768Z,97.90
2024-02-18T08:49:43.172Z,97.60
2024-02-18T08:52:10.127Z,97.78
2024-02-18T08:54:36.846Z,98.14
2024-02-18T08:57:03.457Z,97.95
2024-02-18T08:59:30.172Z,97.89
2024-02-18T09:01:58.790Z,98.26
2024-02-18T09:04:26.396Z,98.39
2024-02-18T09:06:53.358Z,97.98
2024-02-18T09:09:20.181Z,98.45
2024-02-18T09:11:46.613Z,98.52
2024-02-18T09:14:13.152Z,98.18
2024-02-18T09:16:39.599Z,98.14
2024-02-18T09:19:07.280Z,98.16
2024-02-18T09:21:33.824Z,98.62
2024-02-18T09:24:00.455Z,98.49
2024-02-18T09:26:27.125Z,98.36
2024-02-18T09:28:53.640Z,98.71
2024-02-18T09:31:20.460Z,98.35
2024-02-18T09:33:47.243Z,98.39
2024-02-18T09:36:13.874Z,98.24
2024-02-18T09:38:40.723Z,98.51
2024-02-18T09:41:17.738Z,98.43
2024-02-18T09:43:46.300Z,98.43
2024-02-18T09:46:15.442Z,98.41
2024-02-18T09:48:42.805Z,98.34
2024-02-18T09:51:10.526Z,98.41
2024-02-18T09:53:37.130Z,98.39
2024-02-18T09:56:03.841Z,98.20
2024-02-18T09:58:30.820Z,98.26
2024-02-18T10:01:00.042Z,98.48
2024-02-18T10:03:26.785Z,98.43
2024-02-18T10:05:53.509Z,98.25
2024-02-18T10:08:20.016Z,98.32
2024-02-18T10:10:47.636Z,98.67
2024-02-18T10:13:14.912Z,98.53
2024-02-18T10:15:42.837Z,98.33
2024-02-18T10:18:14.776Z,98.41
2024-02-18T10:20:42.545Z,98.78
2024-02-18T10:23:11.521Z,98.65
2024-02-18T10:25:37.908Z,98.13
2024-02-18T10:28:05.943Z,98.29
2024-02-18T10:30:32.550Z,98.19
2024-02-18T10:32:59.163Z,98.00
2024-02-18T10:35:25.777Z,98.39
2024-02-18T10:37:57.448Z,98.26
2024-02-18T10:40:36.456Z,98.08
2024-02-18T10:43:06.099Z,97.77
2024-02-18T10:45:35.967Z,97.85
2024-02-18T10:48:05.955Z,97.60
2024-02-18T10:50:40.598Z,97.67
2024-02-18T10:53:18.718Z,97.69
2024-02-18T10:56:11.933Z,97.89
2024-02-18T10:59:08.731Z,98.10
2024-02-18T11:01:43.477Z,98.57
2024-02-18T11:04:11.260Z,98.39
2024-02-18T11:06:38.950Z,98.87
2024-02-18T11:09:09.531Z,98.74
2024-02-18T11:11:37.259Z,99.07
2024-02-18T11:14:05.998Z,98.94
2024-02-18T11:16:36.182Z,99.20
2024-02-18T11:19:04.302Z,99.10
2024-02-18T11:21:31.816Z,98.97
2024-02-18T11:23:59.873Z,99.11
2024-02-18T11:26:26.940Z,99.59
2024-02-18T11:28:53.885Z,99.34
2024-02-18T11:31:27.760Z,99.21
2024-02-18T11:33:55.044Z,99.56
2024-02-18T11:36:24.353Z,99.25
2024-02-18T11:38:57.687Z,99.46
2024-02-18T11:41:29.055Z,99.22
2024-02-18T11:43:56.257Z,99.36
2024-02-18T11:46:30.208Z,99.25
2024-02-18T11:48:57.593Z,99.23
2024-02-18T11:51:27.655Z,99.25
2024-02-18T11:53:56.781Z,99.77
2024-02-18T11:56:23.309Z,99.41
2024-02-18T11:58:51.706Z,99.62
2024-02-18T12:01:20.697Z,99.94
2024-02-18T12:03:50.313Z,99.65
2024-02-18T12:06:17.004Z,99.55
2024-02-18T12:08:43.807Z,99.46
2024-02-18T12:11:10.289Z,99.56
2024-02-18T12:13:36.921Z,99.67
2024-02-18T12:16:05.823Z,99.34
2024-02-18T12:18:32.761Z,99.56
2024-02-18T12:20:59.376Z,99.80
2024-02-18T12:23:26.629Z,99.40
2024-02-18T12:25:54.885Z,99.52
2024-02-18T12:28:21.467Z,99.77
2024-02-18T12:30:48.383Z,99.75
2024-02-18T12:33:16.335Z,99.28
2024-02-18T12:35:43.100Z,99.80
2024-02-18T12:38:10.356Z,99.78
2024-02-18T12:40:37.181Z,99.67
2024-02-18T12:43:38.393Z,99.70
2024-02-18T12:45:58.987Z,100.00
2024-02-18T12:48:30.150Z,99.85
2024-02-18T12:51:12.697Z,99.81
2024-02-18T12:53:41.252Z,100.00
2024-02-18T12:56:09.459Z,100.00
2024-02-18T12:58:38.734Z,100.00
2024-02-18T13:01:05.985Z,100.00
2024-02-18T13:03:33.901Z,100.00
2024-02-18T13:06:01.508Z,100.00
2024-02-18T13:08:27.994Z,100.00
2024-02-18T13:10:54.607Z,100.00
2024-02-18T13:13:21.111Z,100.00
2024-02-18T13:15:51.000Z,100.00
2024-02-18T13:18:17.550Z,100.00
2024-02-18T13:20:44.018Z,100.00
2024-02-18T13:23:10.384Z,100.00
2024-02-18T13:25:36.762Z,100.00
2024-02-18T13:28:04.446Z,100.00
2024-02-18T13:30:30.938Z,100.00
2024-02-18T13:32:57.397Z,100.00
2024-02-18T13:35:23.925Z,100.00
2024-02-18T13:37:50.357Z,100.00
2024-02-18T13:40:17.293Z,100.00
2024-02-18T13:42:43.829Z,100.00
2024-02-18T13:45:10.959Z,100.00
2024-02-18T13:47:37.463Z,100.00
2024-02-18T13:50:05.483Z,100.00
2024-02-18T13:52:32.239Z,100.00
2024-02-18T13:54:58.774Z,100.00
2024-02-18T13:57:25.376Z,100.00
2024-02-18T13:59:51.970Z,100.00
2024-02-18T14:02:18.704Z,100.00
2024-02-18T14:04:45.136Z,100.00
2024-02-18T14:07:11.587Z,100.00
2024-02-18T14:09:38.072Z,100.00
2024-02-18T14:12:07.373Z,100.00
2024-02-18T14:14:36.868Z,100.00
2024-02-18T14:17:05.003Z,100.00
2024-02-18T14:19:31.440Z,100.00
2024-02-18T14:21:57.990Z,100.00
2024-02-18T14:24:24.524Z,100.00
2024-02-18T14:26:51.209Z,100.00
2024-02-18T14:29:18.256Z,100.00
2024-02-18T14:31:44.670Z,100.00
2024-02-18T14:34:11.428Z,100.00
2024-02-18T14:36:38.032Z,100.00
2024-02-18T14:39:04.421Z,100.00
2024-02-18T14:41:30.940Z,100.00
2024-02-18T14:43:57.442Z,100.00
2024-02-18T14:46:23.936Z,100.00
2024-02-18T14:48:50.472Z,100.00
2024-02-18T14:51:16.940Z,100.00
2024-02-18T14:53:47.536Z,100.00
2024-02-18T14:56:14.059Z,100.00
2024-02-18T14:58:40.629Z,100.00
2024-02-18T15:01:07.276Z,100.00
2024-02-18T15:03:34.081Z,100.00
2024-02-18T15:06:01.604Z,100.00
2024-02-18T15:08:28.235Z,100.00
2024-02-18T15:10:54.966Z,100.00
2024-02-18T15:13:24.611Z,100.00
2024-02-18T15:15:51.401Z,100.00
2024-02-18T15:18:18.653Z,100.00
2024-02-18T15:20:45.544Z,100.00
2024-02-18T15:23:12.029Z,100.00
2024-02-18T15:25:38.523Z,100.00
2024-02-18T15:28:05.036Z,100.00
2024-02-18T15:30:31.600Z,100.00
2024-02-18T15:32:58.181Z,100.00
2024-02-18T15:35:25.156Z,100.00
2024-02-18T15:37:51.620Z,100.00
2024-02-18T15:40:18.269Z,100.00
2024-02-18T15:42:44.839Z,100.00
2024-02-18T15:45:13.637Z,100.00
2024-02-18T15:47:40.068Z,100.00
2024-02-18T15:50:07.294Z,100.00
2024-02-18T15:52:33.831Z,100.00
2024-02-18T15:55:00.379Z,100.00
2024-02-18T15:57:26.819Z,100.00
2024-02-18T15:59:53.315Z,100.00
2024-02-18T16:02:19.751Z,100.00
2024-02-18T16:04:46.399Z,100.00
2024-02-18T16:07:15.775Z,100.00
2024-02-18T16:09:51.272Z,100.00
2024-02-18T16:12:19.126Z,100.00
2024-02-18T16:14:45.647Z,100.00
2024-02-18T16:17:12.158Z,100.00
2024-02-18T16:19:38.660Z,100.00
2024-02-18T16:22:05.207Z,100.00
2024-02-18T16:24:31.755Z,100.00
2024-02-18T16:26:58.214Z,100.00
2024-02-18T16:29:24.956Z,100.00
2024-02-18T16:31:51.551Z,100.00
2024-02-18T16:34:18.399Z,100.00
2024-02-18T16:36:45.624Z,100.00
2024-02-18T16:39:14.942Z,100.00
2024-02-18T16:41:42.309Z,100.00
2024-02-18T16:44:08.891Z,100.00
2024-02-18T16:46:39.608Z,100.00
2024-02-18T16:49:06.765Z,100.00
2024-02-18T16:51:35.558Z,100.00
2024-02-18T16:54:02.491Z,100.00
2024-02-18T16:56:29.777Z,100.00
2024-02-18T16:58:56.326Z,100.00
2024-02-18T17:01:22.973Z,100.00
2024-02-18T17:03:49.604Z,100.00
2024-02-18T17:06:16.619Z,100.00
2024-02-18T17:08:42.985Z,100.00
2024-02-18T17:11:09.406Z,100.00
2024-02-18T17:13:36.040Z,100.00
2024-02-18T17:16:02.540Z,100.00
2024-02-18T17:18:29.725Z,100.00
2024-02-18T17:20:56.377Z,100.00
2024-02-18T17:23:22.916Z,100.00
2024-02-18T17:25:49.450Z,100.00
2024-02-18T17:28:16.069Z,100.00
2024-02-18T17:30:42.618Z,99.92
2024-02-18T17:33:09.229Z,99.74
2024-02-18T17:35:35.708Z,99.52
2024-02-18T17:38:02.151Z,99.33
2024-02-18T17:40:28.592Z,99.05
2024-02-18T17:42:55.020Z,99.07
2024-02-18T17:45:21.652Z,99.25
2024-02-18T17:47:48.272Z,99.13
2024-02-18T17:50:14.956Z,98.97
2024-02-18T17:52:41.450Z,98.55
2024-02-18T17:55:08.052Z,98.54
2024-02-18T17:57:34.707Z,98.96
2024-02-18T18:00:02.217Z,98.81
2024-02-18T18:02:28.829Z,99.06
2024-02-18T18:04:55.579Z,99.04
2024-02-18T18:07:22.214Z,99.47
2024-02-18T18:09:48.702Z,99.63
2024-02-18T18:12:15.695Z,99.42
2024-02-18T18:14:42.319Z,99.70
2024-02-18T18:17:09.496Z,100.00
2024-02-18T18:19:35.802Z,99.89
2024-02-18T18:22:02.351Z,100.00
2024-02-18T18:24:28.765Z,100.00
2024-02-18T18:26:55.152Z,100.00
2024-02-18T18:29:24.636Z,100.00
2024-02-18T18:31:51.277Z,100.00
2024-02-18T18:34:17.804Z,100.00
2024-02-18T18:36:44.534Z,100.00
2024-02-18T18:39:11.615Z,100.00
2024-02-18T18:41:38.144Z,100.00
2024-02-18T18:44:04.724Z,100.00
2024-02-18T18:46:37.729Z,100.00
2024-02-18T18:49:05.901Z,100.00
2024-02-18T18:51:33.374Z,100.00
2024-02-18T18:54:00.653Z,100.00
2024-02-18T18:56:27.108Z,100.00
2024-02-18T18:58:53.568Z,100.00
2024-02-18T19:01:20.677Z,100.00
2024-02-18T19:03:47.146Z,100.00
2024-02-18T19:06:17.130Z,100.00
2024-02-18T19:08:43.753Z,100.00
2024-02-18T19:11:11.800Z,100.00
2024-02-18T19:13:42.743Z,100.00
2024-02-18T19:16:17.290Z,100.00
2024-02-18T19:18:47.680Z,100.00
2024-02-18T19:21:14.375Z,100.00
2024-02-18T19:23:40.789Z,100.00
2024-02-18T19:26:12.740Z,100.00
2024-02-18T19:28:43.544Z,100.00
2024-02-18T19:31:13.568Z,100.00
2024-02-18T19:33:42.350Z,100.00
2024-02-18T19:36:09.222Z,100.00
2024-02-18T19:38:38.733Z,100.00
2024-02-18T19:41:05.508Z,100.00
2024-02-18T19:43:32.064Z,100.00
2024-02-18T19:45:58.743Z,100.00
2024-02-18T19:48:25.341Z,100.00
2024-02-18T19:50:52.329Z,100.00
2024-02-18T19:53:19.918Z,100.00
2024-02-18T19:55:46.893Z,100.00
2024-02-18T19:58:13.438Z,100.00
2024-02-18T20:00:40.123Z,100.00
2024-02-18T20:03:06.812Z,100.00
2024-02-18T20:05:35.444Z,100.00
2024-02-18T20:08:05.138Z,100.00
2024-02-18T20:10:31.587Z,100.00
2024-02-18T20:12:58.971Z,100.00
2024-02-18T20:15:25.447Z,100.00
2024-02-18T20:17:52.329Z,100.00
2024-02-18T20:20:20.867Z,100.00
2024-02-18T20:22:47.396Z,100.00
2024-02-18T20:25:14.014Z,100.00
2024-02-18T20:27:40.550Z,100.00
2024-02-18T20:30:09.949Z,100.00
2024-02-18T20:32:36.460Z,100.00
2024-02-18T20:35:03.258Z,100.00
2024-02-18T20:37:30.936Z,100.00
2024-02-18T20:39:59.469Z,100.00
2024-02-18T20:42:26.183Z,100.00
2024-02-18T20:44:52.738Z,100.00
2024-02-18T20:47:20.027Z,100.00
2024-02-18T20:49:46.729Z,100.00
2024-02-18T20:52:13.513Z,100.00
2024-02-18T20:54:40.113Z,100.00
2024-02-18T20:57:08.961Z,100.00
2024-02-18T20:59:35.449Z,100.00
2024-02-18T21:02:02.001Z,100.00
2024-02-18T21:04:28.659Z,100.00
2024-02-18T21:06:55.996Z,100.00
2024-02-18T21:09:23.864Z,100.00
2024-02-18T21:11:50.283Z,100.00
2024-02-18T21:14:20.213Z,100.00
2024-02-18T21:16:46.977Z,100.00
2024-02-18T21:19:14.025Z,100.00
2024-02-18T21:21:41.341Z,100.00
2024-02-18T21:24:07.887Z,100.00
2024-02-18T21:26:34.472Z,100.00
2024-02-18T21:29:00.889Z,100.00
2024-02-18T21:31:32.443Z,100.00
2024-02-18T21:33:59.015Z,100.00
2024-02-18T21:36:25.914Z,100.00
2024-02-18T21:38:52.832Z,100.00
2024-02-18T21:41:19.468Z,100.00
2024-02-18T21:43:45.951Z,100.00
2024-02-18T21:46:12.945Z,100.00
2024-02-18T21:48:39.867Z,100.00
2024-02-18T21:51:06.584Z,100.00
2024-02-18T21:53:33.188Z,100.00
2024-02-18T21:55:59.983Z,100.00
2024-02-18T21:58:29.143Z,100.00
2024-02-18T22:00:55.647Z,100.00
2024-02-18T22:03:22.129Z,100.00
2024-02-18T22:05:48.684Z,100.00
2024-02-18T22:08:15.266Z,100.00
2024-02-18T22:10:41.778Z,100.00
2024-02-18T22:13:08.359Z,100.00
2024-02-18T22:15:34.842Z,100.00
2024-02-18T22:18:01.548Z,100.00
2024-02-18T22:20:28.170Z,100.00
2024-02-18T22:22:55.723Z,100.00
2024-02-18T22:25:22.135Z,100.00
2024-02-18T22:27:48.844Z,100.00
2024-02-18T22:30:16.992Z,100.00
2024-02-18T22:32:43.609Z,100.00
2024-02-18T22:35:10.261Z,100.00
2024-02-18T22:37:36.786Z,100.00
2024-02-18T22:40:04.155Z,100.00
2024-02-18T22:42:30.647Z,100.00
2024-02-18T22:44:57.068Z,99.85
2024-02-18T22:47:23.489Z,99.70
2024-02-18T22:49:49.901Z,99.69
2024-02-18T22:52:17.373Z,99.62
2024-02-18T22:54:48.139Z,99.32
2024-02-18T22:57:15.512Z,99.38
2024-02-18T22:59:42.027Z,99.31
2024-02-18T23:02:08.880Z,99.26
2024-02-18T23:04:35.399Z,99.64
2024-02-18T23:07:04.674Z,99.04
2024-02-18T23:09:31.104Z,99.35
2024-02-18T23:11:57.540Z,99.12
2024-02-18T23:14:23.946Z,98.84
2024-02-18T23:16:50.398Z,98.83
2024-02-18T23:19:16.925Z,99.10
2024-02-18T23:21:43.451Z,98.90
2024-02-18T23:24:09.985Z,98.45
2024-02-18T23:26:36.380Z,98.46
2024-02-18T23:29:02.832Z,98.59
2024-02-18T23:31:29.810Z,98.56
2024-02-18T23:33:56.502Z,98.48
2024-02-18T23:36:22.946Z,98.52
2024-02-18T23:38:49.400Z,98.63
2024-02-18T23:41:15.823Z,98.37
2024-02-18T23:43:42.557Z,98.70
2024-02-18T23:46:10.357Z,98.59
2024-02-18T23:48:37.008Z,98.25
2024-02-18T23:51:04.381Z,98.34
2024-02-18T23:53:30.873Z,98.69
2024-02-18T23:55:57.362Z,98.46
2024-02-18T23:58:24.135Z,98.49
